sensor_id;sensor_type;location;lat;lon;timestamp;P1;durP1;ratioP1;P2;durP2;ratioP2
68377;SDS011;55322;48.146;11.516;2022-09-09T00:09:59;5.33;;;0.90;;
68377;SDS011;55322;48.146;11.516;2022-09-09T00:12:34;5.00;;;0.90;;
68377;SDS011;55322;48.146;11.516;2022-09-09T00:15:15;4.70;;;0.90;;
68377;SDS011;55322;48.146;11.516;2022-09-09T00:17:56;4.32;;;1.02;;
68377;SDS011;55322;48.146;11.516;2022-09-09T00:20:32;4.93;;;1.00;;
68377;SDS011;55322;48.146;11.516;2022-09-09T00:28:38;5.90;;;1.27;;
68377;SDS011;55322;48.146;11.516;2022-09-09T00:31:28;4.30;;;1.00;;
68377;SDS011;55322;48.146;11.516;2022-09-09T00:33:57;5.78;;;1.00;;
68377;SDS011;55322;48.146;11.516;2022-09-09T00:36:28;5.17;;;1.03;;
68377;SDS011;55322;48.146;11.516;2022-09-09T00:38:56;6.10;;;0.93;;
68377;SDS011;55322;48.146;11.516;2022-09-09T00:44:21;3.85;;;0.90;;
68377;SDS011;55322;48.146;11.516;2022-09-09T00:55:07;5.25;;;0.90;;
68377;SDS011;55322;48.146;11.516;2022-09-09T00:57:43;5.28;;;0.90;;
68377;SDS011;55322;48.146;11.516;2022-09-09T01:00:21;3.58;;;0.80;;
68377;SDS011;55322;48.146;11.516;2022-09-09T01:03:02;4.67;;;0.80;;
68377;SDS011;55322;48.146;11.516;2022-09-09T01:08:10;5.22;;;1.30;;
68377;SDS011;55322;48.146;11.516;2022-09-09T01:10:50;4.95;;;1.05;;
68377;SDS011;55322;48.146;11.516;2022-09-09T01:13:31;4.50;;;0.88;;
68377;SDS011;55322;48.146;11.516;2022-09-09T01:15:59;5.23;;;0.87;;
68377;SDS011;55322;48.146;11.516;2022-09-09T01:18:34;4.40;;;1.00;;
68377;SDS011;55322;48.146;11.516;2022-09-09T01:23:48;4.15;;;0.80;;
68377;SDS011;55322;48.146;11.516;2022-09-09T01:26:37;5.07;;;1.10;;
68377;SDS011;55322;48.146;11.516;2022-09-09T01:29:07;4.23;;;1.00;;
68377;SDS011;55322;48.146;11.516;2022-09-09T01:31:36;6.28;;;1.10;;
68377;SDS011;55322;48.146;11.516;2022-09-09T01:34:12;5.93;;;0.80;;
68377;SDS011;55322;48.146;11.516;2022-09-09T01:36:40;4.53;;;0.77;;
68377;SDS011;55322;48.146;11.516;2022-09-09T01:39:12;5.38;;;1.00;;
68377;SDS011;55322;48.146;11.516;2022-09-09T01:41:38;5.77;;;1.00;;
68377;SDS011;55322;48.146;11.516;2022-09-09T01:44:03;4.00;;;0.80;;
68377;SDS011;55322;48.146;11.516;2022-09-09T01:46:30;5.20;;;0.90;;
68377;SDS011;55322;48.146;11.516;2022-09-09T01:48:56;4.80;;;0.80;;
68377;SDS011;55322;48.146;11.516;2022-09-09T01:51:23;4.45;;;1.23;;
68377;SDS011;55322;48.146;11.516;2022-09-09T01:53:48;5.75;;;1.00;;
68377;SDS011;55322;48.146;11.516;2022-09-09T02:04:35;5.65;;;0.98;;
68377;SDS011;55322;48.146;11.516;2022-09-09T02:07:03;6.70;;;0.87;;
68377;SDS011;55322;48.146;11.516;2022-09-09T02:09:35;3.90;;;0.80;;
68377;SDS011;55322;48.146;11.516;2022-09-09T02:12:14;3.97;;;0.88;;
68377;SDS011;55322;48.146;11.516;2022-09-09T02:14:47;6.13;;;1.02;;
68377;SDS011;55322;48.146;11.516;2022-09-09T02:17:19;4.13;;;0.70;;
68377;SDS011;55322;48.146;11.516;2022-09-09T02:19:58;8.05;;;1.40;;
68377;SDS011;55322;48.146;11.516;2022-09-09T02:22:30;5.70;;;1.00;;
68377;SDS011;55322;48.146;11.516;2022-09-09T02:24:59;4.38;;;1.00;;
68377;SDS011;55322;48.146;11.516;2022-09-09T02:27:26;4.72;;;1.00;;
68377;SDS011;55322;48.146;11.516;2022-09-09T02:29:53;4.17;;;0.93;;
68377;SDS011;55322;48.146;11.516;2022-09-09T02:32:22;4.63;;;0.90;;
68377;SDS011;55322;48.146;11.516;2022-09-09T02:34:56;5.65;;;1.10;;
68377;SDS011;55322;48.146;11.516;2022-09-09T02:37:26;5.50;;;0.90;;
68377;SDS011;55322;48.146;11.516;2022-09-09T02:39:56;4.85;;;0.88;;
68377;SDS011;55322;48.146;11.516;2022-09-09T02:42:22;5.10;;;0.80;;
68377;SDS011;55322;48.146;11.516;2022-09-09T02:44:48;5.88;;;1.10;;
68377;SDS011;55322;48.146;11.516;2022-09-09T02:47:21;4.97;;;1.00;;
68377;SDS011;55322;48.146;11.516;2022-09-09T02:50:04;4.80;;;0.90;;
68377;SDS011;55322;48.146;11.516;2022-09-09T02:55:20;6.35;;;1.00;;
68377;SDS011;55322;48.146;11.516;2022-09-09T02:57:53;5.68;;;1.30;;
68377;SDS011;55322;48.146;11.516;2022-09-09T03:00:25;5.15;;;1.17;;
68377;SDS011;55322;48.146;11.516;2022-09-09T03:02:52;5.93;;;1.05;;
68377;SDS011;55322;48.146;11.516;2022-09-09T03:05:19;5.00;;;0.93;;
68377;SDS011;55322;48.146;11.516;2022-09-09T03:07:45;5.13;;;0.90;;
68377;SDS011;55322;48.146;11.516;2022-09-09T03:10:10;6.20;;;1.00;;
68377;SDS011;55322;48.146;11.516;2022-09-09T03:12:35;4.43;;;0.80;;
68377;SDS011;55322;48.146;11.516;2022-09-09T03:15:01;4.33;;;0.80;;
68377;SDS011;55322;48.146;11.516;2022-09-09T03:17:27;4.68;;;0.90;;
68377;SDS011;55322;48.146;11.516;2022-09-09T03:19:53;4.47;;;0.90;;
68377;SDS011;55322;48.146;11.516;2022-09-09T03:22:19;5.93;;;1.10;;
68377;SDS011;55322;48.146;11.516;2022-09-09T03:24:46;5.80;;;1.00;;
68377;SDS011;55322;48.146;11.516;2022-09-09T03:27:11;6.63;;;1.10;;
68377;SDS011;55322;48.146;11.516;2022-09-09T03:29:39;5.80;;;0.90;;
68377;SDS011;55322;48.146;11.516;2022-09-09T03:32:04;6.90;;;0.90;;
68377;SDS011;55322;48.146;11.516;2022-09-09T03:34:30;4.50;;;0.93;;
68377;SDS011;55322;48.146;11.516;2022-09-09T03:36:55;5.37;;;0.93;;
68377;SDS011;55322;48.146;11.516;2022-09-09T03:39:21;4.28;;;0.82;;
68377;SDS011;55322;48.146;11.516;2022-09-09T03:41:46;5.33;;;1.10;;
68377;SDS011;55322;48.146;11.516;2022-09-09T03:44:13;5.75;;;1.05;;
68377;SDS011;55322;48.146;11.516;2022-09-09T03:46:39;4.10;;;0.83;;
68377;SDS011;55322;48.146;11.516;2022-09-09T03:49:05;5.68;;;1.10;;
68377;SDS011;55322;48.146;11.516;2022-09-09T03:51:30;5.67;;;0.97;;
68377;SDS011;55322;48.146;11.516;2022-09-09T03:53:55;6.10;;;1.00;;
68377;SDS011;55322;48.146;11.516;2022-09-09T03:56:23;4.32;;;0.88;;
68377;SDS011;55322;48.146;11.516;2022-09-09T03:58:48;5.30;;;1.00;;
68377;SDS011;55322;48.146;11.516;2022-09-09T04:01:14;5.68;;;1.30;;
68377;SDS011;55322;48.146;11.516;2022-09-09T04:03:40;5.77;;;1.10;;
68377;SDS011;55322;48.146;11.516;2022-09-09T04:06:06;8.32;;;1.25;;
68377;SDS011;55322;48.146;11.516;2022-09-09T04:08:33;6.15;;;1.02;;
68377;SDS011;55322;48.146;11.516;2022-09-09T04:11:00;6.28;;;1.58;;
68377;SDS011;55322;48.146;11.516;2022-09-09T04:13:31;5.27;;;1.20;;
68377;SDS011;55322;48.146;11.516;2022-09-09T04:16:00;5.50;;;1.30;;
68377;SDS011;55322;48.146;11.516;2022-09-09T04:18:28;6.28;;;1.42;;
68377;SDS011;55322;48.146;11.516;2022-09-09T04:20:54;4.60;;;1.20;;
68377;SDS011;55322;48.146;11.516;2022-09-09T04:23:22;5.63;;;1.40;;
68377;SDS011;55322;48.146;11.516;2022-09-09T04:25:50;4.72;;;0.98;;
68377;SDS011;55322;48.146;11.516;2022-09-09T04:28:17;7.93;;;1.40;;
68377;SDS011;55322;48.146;11.516;2022-09-09T04:30:43;4.73;;;0.90;;
68377;SDS011;55322;48.146;11.516;2022-09-09T04:33:10;4.47;;;0.80;;
68377;SDS011;55322;48.146;11.516;2022-09-09T04:35:36;4.13;;;0.88;;
68377;SDS011;55322;48.146;11.516;2022-09-09T04:38:02;4.85;;;1.00;;
68377;SDS011;55322;48.146;11.516;2022-09-09T04:40:28;5.30;;;0.80;;
68377;SDS011;55322;48.146;11.516;2022-09-09T04:42:54;6.55;;;1.05;;
68377;SDS011;55322;48.146;11.516;2022-09-09T04:45:22;4.15;;;1.00;;
68377;SDS011;55322;48.146;11.516;2022-09-09T04:47:47;6.10;;;1.10;;
68377;SDS011;55322;48.146;11.516;2022-09-09T04:50:14;5.13;;;1.17;;
68377;SDS011;55322;48.146;11.516;2022-09-09T04:52:39;4.67;;;0.97;;
68377;SDS011;55322;48.146;11.516;2022-09-09T04:55:06;5.47;;;1.45;;
68377;SDS011;55322;48.146;11.516;2022-09-09T04:57:32;7.32;;;1.30;;
68377;SDS011;55322;48.146;11.516;2022-09-09T04:59:58;5.60;;;1.00;;
68377;SDS011;55322;48.146;11.516;2022-09-09T05:02:24;6.13;;;1.13;;
68377;SDS011;55322;48.146;11.516;2022-09-09T05:04:50;4.95;;;1.05;;
68377;SDS011;55322;48.146;11.516;2022-09-09T05:07:16;6.43;;;1.20;;
68377;SDS011;55322;48.146;11.516;2022-09-09T05:09:41;5.03;;;1.00;;
68377;SDS011;55322;48.146;11.516;2022-09-09T05:12:06;4.30;;;0.97;;
68377;SDS011;55322;48.146;11.516;2022-09-09T05:14:33;4.47;;;1.10;;
68377;SDS011;55322;48.146;11.516;2022-09-09T05:16:58;4.13;;;0.80;;
68377;SDS011;55322;48.146;11.516;2022-09-09T05:19:24;5.85;;;1.00;;
68377;SDS011;55322;48.146;11.516;2022-09-09T05:21:49;5.13;;;1.00;;
68377;SDS011;55322;48.146;11.516;2022-09-09T05:24:15;5.57;;;0.90;;
68377;SDS011;55322;48.146;11.516;2022-09-09T05:26:40;4.60;;;0.80;;
68377;SDS011;55322;48.146;11.516;2022-09-09T05:29:06;4.50;;;0.90;;
68377;SDS011;55322;48.146;11.516;2022-09-09T05:31:31;4.50;;;0.90;;
68377;SDS011;55322;48.146;11.516;2022-09-09T05:33:57;5.10;;;1.20;;
68377;SDS011;55322;48.146;11.516;2022-09-09T05:36:23;4.37;;;0.87;;
68377;SDS011;55322;48.146;11.516;2022-09-09T05:38:49;7.72;;;0.95;;
68377;SDS011;55322;48.146;11.516;2022-09-09T05:41:15;6.10;;;0.90;;
68377;SDS011;55322;48.146;11.516;2022-09-09T05:43:42;6.43;;;1.15;;
68377;SDS011;55322;48.146;11.516;2022-09-09T05:46:13;5.38;;;1.20;;
68377;SDS011;55322;48.146;11.516;2022-09-09T05:48:40;5.30;;;1.10;;
68377;SDS011;55322;48.146;11.516;2022-09-09T05:51:08;6.10;;;1.10;;
68377;SDS011;55322;48.146;11.516;2022-09-09T05:53:36;5.00;;;1.00;;
68377;SDS011;55322;48.146;11.516;2022-09-09T05:56:05;7.37;;;1.00;;
68377;SDS011;55322;48.146;11.516;2022-09-09T05:58:36;5.53;;;0.93;;
68377;SDS011;55322;48.146;11.516;2022-09-09T06:01:05;4.72;;;0.82;;
68377;SDS011;55322;48.146;11.516;2022-09-09T06:03:34;4.22;;;0.93;;
68377;SDS011;55322;48.146;11.516;2022-09-09T06:06:00;5.78;;;1.08;;
68377;SDS011;55322;48.146;11.516;2022-09-09T06:08:30;5.20;;;0.90;;
68377;SDS011;55322;48.146;11.516;2022-09-09T06:11:00;4.18;;;0.95;;
68377;SDS011;55322;48.146;11.516;2022-09-09T06:13:27;4.93;;;1.00;;
68377;SDS011;55322;48.146;11.516;2022-09-09T06:15:53;5.45;;;0.90;;
68377;SDS011;55322;48.146;11.516;2022-09-09T06:18:18;5.13;;;0.60;;
68377;SDS011;55322;48.146;11.516;2022-09-09T06:21:00;4.87;;;0.80;;
68377;SDS011;55322;48.146;11.516;2022-09-09T06:23:29;4.47;;;0.82;;
68377;SDS011;55322;48.146;11.516;2022-09-09T06:26:05;4.05;;;0.70;;
68377;SDS011;55322;48.146;11.516;2022-09-09T06:28:36;4.78;;;0.90;;
68377;SDS011;55322;48.146;11.516;2022-09-09T06:31:02;4.40;;;0.63;;
68377;SDS011;55322;48.146;11.516;2022-09-09T06:33:33;4.43;;;0.85;;
68377;SDS011;55322;48.146;11.516;2022-09-09T06:36:01;5.33;;;0.80;;
68377;SDS011;55322;48.146;11.516;2022-09-09T06:38:28;5.03;;;0.80;;
68377;SDS011;55322;48.146;11.516;2022-09-09T06:40:54;5.67;;;0.80;;
68377;SDS011;55322;48.146;11.516;2022-09-09T06:43:21;4.45;;;0.90;;
68377;SDS011;55322;48.146;11.516;2022-09-09T06:45:58;5.57;;;0.68;;
68377;SDS011;55322;48.146;11.516;2022-09-09T06:48:25;5.18;;;0.80;;
68377;SDS011;55322;48.146;11.516;2022-09-09T06:51:00;7.10;;;0.80;;
68377;SDS011;55322;48.146;11.516;2022-09-09T06:53:30;3.80;;;0.80;;
68377;SDS011;55322;48.146;11.516;2022-09-09T06:55:58;5.28;;;0.70;;
68377;SDS011;55322;48.146;11.516;2022-09-09T06:58:24;5.30;;;0.83;;
68377;SDS011;55322;48.146;11.516;2022-09-09T07:00:49;5.40;;;0.85;;
68377;SDS011;55322;48.146;11.516;2022-09-09T07:03:14;5.63;;;0.80;;
68377;SDS011;55322;48.146;11.516;2022-09-09T07:05:40;4.40;;;0.70;;
68377;SDS011;55322;48.146;11.516;2022-09-09T07:08:05;6.03;;;0.70;;
68377;SDS011;55322;48.146;11.516;2022-09-09T07:10:30;4.03;;;0.73;;
68377;SDS011;55322;48.146;11.516;2022-09-09T07:12:56;3.65;;;0.80;;
68377;SDS011;55322;48.146;11.516;2022-09-09T07:15:21;5.73;;;0.70;;
68377;SDS011;55322;48.146;11.516;2022-09-09T07:17:47;4.90;;;0.88;;
68377;SDS011;55322;48.146;11.516;2022-09-09T07:20:13;5.30;;;0.70;;
68377;SDS011;55322;48.146;11.516;2022-09-09T07:22:39;3.60;;;0.70;;
68377;SDS011;55322;48.146;11.516;2022-09-09T07:25:05;5.60;;;0.73;;
68377;SDS011;55322;48.146;11.516;2022-09-09T07:27:31;4.60;;;0.90;;
68377;SDS011;55322;48.146;11.516;2022-09-09T07:29:56;4.00;;;0.70;;
68377;SDS011;55322;48.146;11.516;2022-09-09T07:32:22;4.43;;;0.90;;
68377;SDS011;55322;48.146;11.516;2022-09-09T07:34:47;5.60;;;0.77;;
68377;SDS011;55322;48.146;11.516;2022-09-09T07:37:15;3.87;;;0.63;;
68377;SDS011;55322;48.146;11.516;2022-09-09T07:39:41;4.13;;;0.77;;
68377;SDS011;55322;48.146;11.516;2022-09-09T07:42:07;5.60;;;0.80;;
68377;SDS011;55322;48.146;11.516;2022-09-09T07:44:34;5.53;;;0.80;;
68377;SDS011;55322;48.146;11.516;2022-09-09T07:47:01;4.30;;;0.80;;
68377;SDS011;55322;48.146;11.516;2022-09-09T07:49:27;3.97;;;0.80;;
68377;SDS011;55322;48.146;11.516;2022-09-09T07:51:53;4.30;;;0.70;;
68377;SDS011;55322;48.146;11.516;2022-09-09T07:54:19;3.47;;;0.63;;
68377;SDS011;55322;48.146;11.516;2022-09-09T07:56:45;4.95;;;0.80;;
68377;SDS011;55322;48.146;11.516;2022-09-09T07:59:11;4.45;;;1.00;;
68377;SDS011;55322;48.146;11.516;2022-09-09T08:01:42;6.00;;;0.80;;
68377;SDS011;55322;48.146;11.516;2022-09-09T08:04:16;5.93;;;0.73;;
68377;SDS011;55322;48.146;11.516;2022-09-09T08:06:45;6.78;;;0.73;;
68377;SDS011;55322;48.146;11.516;2022-09-09T08:09:13;3.13;;;0.55;;
68377;SDS011;55322;48.146;11.516;2022-09-09T08:11:39;3.90;;;0.60;;
68377;SDS011;55322;48.146;11.516;2022-09-09T08:14:06;4.45;;;0.70;;
68377;SDS011;55322;48.146;11.516;2022-09-09T08:16:39;4.67;;;0.80;;
68377;SDS011;55322;48.146;11.516;2022-09-09T08:19:06;4.30;;;0.73;;
68377;SDS011;55322;48.146;11.516;2022-09-09T08:21:32;6.25;;;0.80;;
68377;SDS011;55322;48.146;11.516;2022-09-09T08:23:59;4.82;;;0.88;;
68377;SDS011;55322;48.146;11.516;2022-09-09T08:26:27;5.25;;;0.77;;
68377;SDS011;55322;48.146;11.516;2022-09-09T08:28:57;3.87;;;0.77;;
68377;SDS011;55322;48.146;11.516;2022-09-09T08:31:25;4.13;;;0.88;;
68377;SDS011;55322;48.146;11.516;2022-09-09T08:34:02;6.07;;;1.00;;
68377;SDS011;55322;48.146;11.516;2022-09-09T08:36:29;5.13;;;0.85;;
68377;SDS011;55322;48.146;11.516;2022-09-09T08:38:58;5.13;;;0.90;;
68377;SDS011;55322;48.146;11.516;2022-09-09T08:58:09;4.80;;;1.00;;
68377;SDS011;55322;48.146;11.516;2022-09-09T09:03:44;4.38;;;0.93;;
68377;SDS011;55322;48.146;11.516;2022-09-09T09:11:45;4.30;;;0.85;;
68377;SDS011;55322;48.146;11.516;2022-09-09T09:14:22;4.20;;;0.60;;
68377;SDS011;55322;48.146;11.516;2022-09-09T09:17:05;4.73;;;0.60;;
68377;SDS011;55322;48.146;11.516;2022-09-09T09:19:34;4.68;;;0.70;;
68377;SDS011;55322;48.146;11.516;2022-09-09T09:24:53;4.93;;;0.70;;
68377;SDS011;55322;48.146;11.516;2022-09-09T09:27:33;4.25;;;0.65;;
68377;SDS011;55322;48.146;11.516;2022-09-09T09:30:13;6.25;;;1.00;;
68377;SDS011;55322;48.146;11.516;2022-09-09T09:32:40;4.53;;;0.80;;
68377;SDS011;55322;48.146;11.516;2022-09-09T09:35:13;5.85;;;1.30;;
68377;SDS011;55322;48.146;11.516;2022-09-09T09:37:40;3.93;;;0.77;;
68377;SDS011;55322;48.146;11.516;2022-09-09T09:42:35;6.70;;;0.80;;
68377;SDS011;55322;48.146;11.516;2022-09-09T09:45:08;7.20;;;0.90;;
68377;SDS011;55322;48.146;11.516;2022-09-09T09:47:41;4.53;;;0.63;;
68377;SDS011;55322;48.146;11.516;2022-09-09T09:50:16;4.97;;;0.60;;
68377;SDS011;55322;48.146;11.516;2022-09-09T09:52:42;4.80;;;0.70;;
68377;SDS011;55322;48.146;11.516;2022-09-09T09:55:20;4.47;;;0.75;;
68377;SDS011;55322;48.146;11.516;2022-09-09T09:57:45;4.93;;;0.90;;
68377;SDS011;55322;48.146;11.516;2022-09-09T10:00:13;4.03;;;0.80;;
68377;SDS011;55322;48.146;11.516;2022-09-09T10:02:40;6.57;;;0.80;;
68377;SDS011;55322;48.146;11.516;2022-09-09T10:05:21;5.70;;;0.93;;
68377;SDS011;55322;48.146;11.516;2022-09-09T10:10:48;4.47;;;0.90;;
68377;SDS011;55322;48.146;11.516;2022-09-09T10:19:30;4.50;;;0.80;;
68377;SDS011;55322;48.146;11.516;2022-09-09T10:27:36;5.05;;;1.00;;
68377;SDS011;55322;48.146;11.516;2022-09-09T10:31:12;6.13;;;1.40;;
68377;SDS011;55322;48.146;11.516;2022-09-09T10:33:16;4.93;;;0.90;;
68377;SDS011;55322;48.146;11.516;2022-09-09T10:36:21;4.15;;;0.85;;
68377;SDS011;55322;48.146;11.516;2022-09-09T10:38:53;5.80;;;0.90;;
68377;SDS011;55322;48.146;11.516;2022-09-09T10:41:40;6.10;;;0.85;;
68377;SDS011;55322;48.146;11.516;2022-09-09T10:44:21;5.65;;;0.80;;
68377;SDS011;55322;48.146;11.516;2022-09-09T10:55:16;4.10;;;0.70;;
68377;SDS011;55322;48.146;11.516;2022-09-09T10:57:48;5.03;;;0.80;;
68377;SDS011;55322;48.146;11.516;2022-09-09T11:00:21;4.40;;;0.80;;
68377;SDS011;55322;48.146;11.516;2022-09-09T11:02:52;3.95;;;0.73;;
68377;SDS011;55322;48.146;11.516;2022-09-09T11:05:20;3.90;;;0.75;;
68377;SDS011;55322;48.146;11.516;2022-09-09T11:07:55;4.15;;;0.73;;
68377;SDS011;55322;48.146;11.516;2022-09-09T11:10:34;3.55;;;0.70;;
68377;SDS011;55322;48.146;11.516;2022-09-09T11:13:10;3.77;;;0.70;;
68377;SDS011;55322;48.146;11.516;2022-09-09T11:15:45;3.17;;;0.68;;
68377;SDS011;55322;48.146;11.516;2022-09-09T11:18:19;5.78;;;0.73;;
68377;SDS011;55322;48.146;11.516;2022-09-09T11:20:47;6.60;;;0.70;;
68377;SDS011;55322;48.146;11.516;2022-09-09T11:23:24;3.58;;;0.60;;
68377;SDS011;55322;48.146;11.516;2022-09-09T11:25:55;3.80;;;0.80;;
68377;SDS011;55322;48.146;11.516;2022-09-09T11:31:24;3.97;;;0.70;;
68377;SDS011;55322;48.146;11.516;2022-09-09T11:37:17;3.95;;;0.70;;
68377;SDS011;55322;48.146;11.516;2022-09-09T11:40:19;4.57;;;0.50;;
68377;SDS011;55322;48.146;11.516;2022-09-09T11:43:12;3.20;;;0.60;;
68377;SDS011;55322;48.146;11.516;2022-09-09T11:45:43;6.70;;;0.63;;
68377;SDS011;55322;48.146;11.516;2022-09-09T11:48:25;3.75;;;0.50;;
68377;SDS011;55322;48.146;11.516;2022-09-09T11:50:58;4.47;;;0.70;;
68377;SDS011;55322;48.146;11.516;2022-09-09T11:53:25;3.53;;;0.80;;
68377;SDS011;55322;48.146;11.516;2022-09-09T11:56:05;3.63;;;0.50;;
68377;SDS011;55322;48.146;11.516;2022-09-09T11:58:36;3.20;;;0.60;;
68377;SDS011;55322;48.146;11.516;2022-09-09T12:01:25;4.20;;;0.80;;
68377;SDS011;55322;48.146;11.516;2022-09-09T12:03:54;3.93;;;0.50;;
68377;SDS011;55322;48.146;11.516;2022-09-09T12:06:31;4.03;;;0.57;;
68377;SDS011;55322;48.146;11.516;2022-09-09T12:09:44;4.40;;;0.60;;
68377;SDS011;55322;48.146;11.516;2022-09-09T12:12:21;3.80;;;0.60;;
68377;SDS011;55322;48.146;11.516;2022-09-09T12:17:29;4.77;;;0.50;;
68377;SDS011;55322;48.146;11.516;2022-09-09T12:22:46;4.43;;;0.80;;
68377;SDS011;55322;48.146;11.516;2022-09-09T12:28:09;3.40;;;0.50;;
68377;SDS011;55322;48.146;11.516;2022-09-09T12:30:58;3.77;;;0.60;;
68377;SDS011;55322;48.146;11.516;2022-09-09T12:33:45;3.33;;;0.60;;
68377;SDS011;55322;48.146;11.516;2022-09-09T12:36:22;4.10;;;0.65;;
68377;SDS011;55322;48.146;11.516;2022-09-09T12:38:59;4.88;;;0.50;;
68377;SDS011;55322;48.146;11.516;2022-09-09T12:41:39;3.53;;;0.60;;
68377;SDS011;55322;48.146;11.516;2022-09-09T12:44:05;3.60;;;0.60;;
68377;SDS011;55322;48.146;11.516;2022-09-09T12:46:38;4.00;;;0.70;;
68377;SDS011;55322;48.146;11.516;2022-09-09T12:51:55;3.45;;;0.40;;
68377;SDS011;55322;48.146;11.516;2022-09-09T12:54:22;9.30;;;1.20;;
68377;SDS011;55322;48.146;11.516;2022-09-09T12:56:48;6.25;;;0.75;;
68377;SDS011;55322;48.146;11.516;2022-09-09T12:59:24;4.47;;;0.60;;
68377;SDS011;55322;48.146;11.516;2022-09-09T13:01:58;4.27;;;0.60;;
68377;SDS011;55322;48.146;11.516;2022-09-09T13:04:24;3.58;;;0.60;;
68377;SDS011;55322;48.146;11.516;2022-09-09T13:06:50;4.25;;;0.50;;
68377;SDS011;55322;48.146;11.516;2022-09-09T13:09:17;2.55;;;0.50;;
68377;SDS011;55322;48.146;11.516;2022-09-09T13:11:43;7.20;;;0.67;;
68377;SDS011;55322;48.146;11.516;2022-09-09T13:14:16;4.18;;;0.60;;
68377;SDS011;55322;48.146;11.516;2022-09-09T13:16:53;4.60;;;0.57;;
68377;SDS011;55322;48.146;11.516;2022-09-09T13:19:21;4.18;;;0.60;;
68377;SDS011;55322;48.146;11.516;2022-09-09T13:21:47;5.10;;;0.60;;
68377;SDS011;55322;48.146;11.516;2022-09-09T13:24:26;4.70;;;0.60;;
68377;SDS011;55322;48.146;11.516;2022-09-09T13:27:00;2.95;;;0.60;;
68377;SDS011;55322;48.146;11.516;2022-09-09T13:29:28;3.40;;;0.60;;
68377;SDS011;55322;48.146;11.516;2022-09-09T13:31:56;3.72;;;0.60;;
68377;SDS011;55322;48.146;11.516;2022-09-09T13:34:33;3.70;;;0.70;;
68377;SDS011;55322;48.146;11.516;2022-09-09T13:37:06;5.22;;;0.60;;
68377;SDS011;55322;48.146;11.516;2022-09-09T13:39:50;3.83;;;0.60;;
68377;SDS011;55322;48.146;11.516;2022-09-09T13:42:22;4.53;;;0.60;;
68377;SDS011;55322;48.146;11.516;2022-09-09T13:44:50;3.95;;;0.55;;
68377;SDS011;55322;48.146;11.516;2022-09-09T13:47:19;3.53;;;0.50;;
68377;SDS011;55322;48.146;11.516;2022-09-09T13:49:48;3.05;;;0.50;;
68377;SDS011;55322;48.146;11.516;2022-09-09T13:52:17;2.83;;;0.40;;
68377;SDS011;55322;48.146;11.516;2022-09-09T13:54:47;4.00;;;0.50;;
68377;SDS011;55322;48.146;11.516;2022-09-09T13:57:18;4.33;;;0.40;;
68377;SDS011;55322;48.146;11.516;2022-09-09T13:59:50;3.38;;;0.50;;
68377;SDS011;55322;48.146;11.516;2022-09-09T14:02:16;3.90;;;0.60;;
68377;SDS011;55322;48.146;11.516;2022-09-09T14:04:42;3.20;;;0.50;;
68377;SDS011;55322;48.146;11.516;2022-09-09T14:07:11;2.60;;;0.50;;
68377;SDS011;55322;48.146;11.516;2022-09-09T14:09:39;5.68;;;0.50;;
68377;SDS011;55322;48.146;11.516;2022-09-09T14:12:05;4.03;;;0.50;;
68377;SDS011;55322;48.146;11.516;2022-09-09T14:14:33;5.03;;;0.50;;
68377;SDS011;55322;48.146;11.516;2022-09-09T14:16:58;4.93;;;0.50;;
68377;SDS011;55322;48.146;11.516;2022-09-09T14:19:24;3.83;;;0.70;;
68377;SDS011;55322;48.146;11.516;2022-09-09T14:21:49;3.10;;;0.50;;
68377;SDS011;55322;48.146;11.516;2022-09-09T14:24:15;3.43;;;0.50;;
68377;SDS011;55322;48.146;11.516;2022-09-09T14:26:41;4.93;;;0.68;;
68377;SDS011;55322;48.146;11.516;2022-09-09T14:29:06;4.73;;;0.60;;
68377;SDS011;55322;48.146;11.516;2022-09-09T14:31:32;5.68;;;0.80;;
68377;SDS011;55322;48.146;11.516;2022-09-09T14:33:57;2.70;;;0.40;;
68377;SDS011;55322;48.146;11.516;2022-09-09T14:36:23;3.40;;;0.50;;
68377;SDS011;55322;48.146;11.516;2022-09-09T14:38:49;3.53;;;0.60;;
68377;SDS011;55322;48.146;11.516;2022-09-09T14:41:16;3.20;;;0.50;;
68377;SDS011;55322;48.146;11.516;2022-09-09T14:43:43;3.67;;;0.40;;
68377;SDS011;55322;48.146;11.516;2022-09-09T14:46:10;4.38;;;0.70;;
68377;SDS011;55322;48.146;11.516;2022-09-09T14:48:37;4.15;;;0.50;;
68377;SDS011;55322;48.146;11.516;2022-09-09T14:51:04;5.05;;;0.52;;
68377;SDS011;55322;48.146;11.516;2022-09-09T14:53:31;5.80;;;0.87;;
68377;SDS011;55322;48.146;11.516;2022-09-09T14:58:54;3.33;;;0.43;;
68377;SDS011;55322;48.146;11.516;2022-09-09T15:01:20;4.82;;;0.50;;
68377;SDS011;55322;48.146;11.516;2022-09-09T15:03:50;4.35;;;0.50;;
68377;SDS011;55322;48.146;11.516;2022-09-09T15:06:17;3.30;;;0.50;;
68377;SDS011;55322;48.146;11.516;2022-09-09T15:08:43;6.05;;;0.60;;
68377;SDS011;55322;48.146;11.516;2022-09-09T15:11:10;3.03;;;0.50;;
68377;SDS011;55322;48.146;11.516;2022-09-09T15:13:37;3.78;;;0.60;;
68377;SDS011;55322;48.146;11.516;2022-09-09T15:16:07;3.00;;;0.40;;
68377;SDS011;55322;48.146;11.516;2022-09-09T15:18:37;4.87;;;0.70;;
68377;SDS011;55322;48.146;11.516;2022-09-09T15:21:07;3.10;;;0.40;;
68377;SDS011;55322;48.146;11.516;2022-09-09T15:23:37;5.43;;;0.60;;
68377;SDS011;55322;48.146;11.516;2022-09-09T15:26:03;4.38;;;0.50;;
68377;SDS011;55322;48.146;11.516;2022-09-09T15:28:29;3.30;;;0.50;;
68377;SDS011;55322;48.146;11.516;2022-09-09T15:30:56;3.97;;;0.50;;
68377;SDS011;55322;48.146;11.516;2022-09-09T15:33:22;4.18;;;0.60;;
68377;SDS011;55322;48.146;11.516;2022-09-09T15:35:48;4.20;;;0.67;;
68377;SDS011;55322;48.146;11.516;2022-09-09T15:38:14;5.47;;;0.70;;
68377;SDS011;55322;48.146;11.516;2022-09-09T15:40:41;5.00;;;0.80;;
68377;SDS011;55322;48.146;11.516;2022-09-09T15:43:07;4.00;;;0.67;;
68377;SDS011;55322;48.146;11.516;2022-09-09T15:45:34;3.67;;;0.75;;
68377;SDS011;55322;48.146;11.516;2022-09-09T15:48:00;4.35;;;0.60;;
68377;SDS011;55322;48.146;11.516;2022-09-09T15:50:26;3.10;;;0.50;;
68377;SDS011;55322;48.146;11.516;2022-09-09T15:52:53;4.60;;;0.50;;
68377;SDS011;55322;48.146;11.516;2022-09-09T15:55:19;4.57;;;0.60;;
68377;SDS011;55322;48.146;11.516;2022-09-09T15:57:49;3.42;;;0.43;;
68377;SDS011;55322;48.146;11.516;2022-09-09T16:00:14;3.00;;;0.40;;
68377;SDS011;55322;48.146;11.516;2022-09-09T16:02:40;4.33;;;0.70;;
68377;SDS011;55322;48.146;11.516;2022-09-09T16:05:05;4.03;;;0.60;;
68377;SDS011;55322;48.146;11.516;2022-09-09T16:07:31;3.80;;;0.73;;
68377;SDS011;55322;48.146;11.516;2022-09-09T16:09:56;3.97;;;0.60;;
68377;SDS011;55322;48.146;11.516;2022-09-09T16:12:22;4.45;;;0.60;;
68377;SDS011;55322;48.146;11.516;2022-09-09T16:14:47;6.03;;;0.50;;
68377;SDS011;55322;48.146;11.516;2022-09-09T16:17:12;4.73;;;0.67;;
68377;SDS011;55322;48.146;11.516;2022-09-09T16:19:39;4.55;;;0.50;;
68377;SDS011;55322;48.146;11.516;2022-09-09T16:22:04;4.70;;;0.50;;
68377;SDS011;55322;48.146;11.516;2022-09-09T16:24:31;4.20;;;0.60;;
68377;SDS011;55322;48.146;11.516;2022-09-09T16:26:57;2.93;;;0.47;;
68377;SDS011;55322;48.146;11.516;2022-09-09T16:29:22;4.63;;;0.50;;
68377;SDS011;55322;48.146;11.516;2022-09-09T16:31:48;3.40;;;0.50;;
68377;SDS011;55322;48.146;11.516;2022-09-09T16:34:15;3.33;;;0.50;;
68377;SDS011;55322;48.146;11.516;2022-09-09T16:36:42;3.78;;;0.60;;
68377;SDS011;55322;48.146;11.516;2022-09-09T16:39:09;4.07;;;0.55;;
68377;SDS011;55322;48.146;11.516;2022-09-09T16:41:37;4.15;;;0.57;;
68377;SDS011;55322;48.146;11.516;2022-09-09T16:44:04;4.60;;;0.63;;